Time;durP1;ratioP1;P1;durP2;ratioP2;P2;SDS_P1;SDS_P2;PMS_P1;PMS_P2;Temp;Humidity;BMP_temperature;BMP_pressure;BME280_temperature;BME280_humidity;BME280_pressure;Samples;Min_cycle;Max_cycle;Signal;HPM_P1;HPM_P2
2022/07/28 00:04:18;;;;;;;2.90;2.10;;;;;;;11.48;67.57;100088.80;215659;1277;140248;-65
2022/07/28 00:09:20;;;;;;;3.50;2.00;;;;;;;11.41;67.63;100085.97;215682;1278;140313;-65
2022/07/28 00:14:24;;;;;;;7.70;1.80;;;;;;;11.39;67.76;100088.13;215416;1278;152005;-65
2022/07/28 00:19:27;;;;;;;2.50;2.30;;;;;;;11.32;67.88;100084.11;215689;1277;140881;-65
2022/07/28 00:24:30;;;;;;;2.70;1.70;;;;;;;11.23;68.01;100086.04;213743;1278;140165;-64
2022/07/28 00:29:34;;;;;;;2.20;1.80;;;;;;;11.07;68.20;100086.93;212959;1278;141112;-65
2022/07/28 00:34:52;;;;;;;5.10;2.60;;;;;;;11.00;68.77;100090.91;213631;1277;141274;-63
2022/07/28 00:39:56;;;;;;;2.10;1.90;;;;;;;10.91;68.70;100087.98;213176;1277;141381;-64
2022/07/28 00:45:00;;;;;;;3.70;1.80;;;;;;;10.82;68.85;100083.90;213383;1279;141229;-63
2022/07/28 00:50:04;;;;;;;1.70;1.60;;;;;;;10.73;69.07;100085.52;213714;1277;140243;-64
2022/07/28 00:55:08;;;;;;;2.00;1.90;;;;;;;10.66;69.42;100086.79;212849;1277;139537;-64
2022/07/28 01:00:11;;;;;;;4.50;1.70;;;;;;;10.62;69.62;100083.55;213216;1278;139932;-64
2022/07/28 01:05:15;;;;;;;6.70;1.80;;;;;;;10.52;69.57;100087.16;213255;1278;141394;-64
2022/07/28 01:10:17;;;;;;;5.00;2.10;;;;;;;10.35;69.63;100087.42;213500;1278;143838;-64
2022/07/28 01:15:39;;;;;;;2.80;1.90;;;;;;;10.25;70.09;100084.77;213054;1278;141196;-64
2022/07/28 01:20:48;;;;;;;4.80;1.70;;;;;;;10.17;70.00;100079.30;212988;1279;141077;-65
2022/07/28 01:26:25;;;;;;;3.50;2.00;;;;;;;10.10;70.08;100082.83;213647;1278;141685;-64
2022/07/28 01:31:38;;;;;;;1.70;1.30;;;;;;;9.97;70.28;100081.23;214165;1278;140909;-64
2022/07/28 01:36:51;;;;;;;1.90;1.70;;;;;;;9.88;70.42;100085.29;213900;1278;141457;-65
2022/07/28 01:41:55;;;;;;;2.80;2.50;;;;;;;9.81;70.59;100088.80;214701;1277;140433;-65
2022/07/28 01:46:59;;;;;;;2.40;2.30;;;;;;;9.79;70.73;100087.88;215585;1277;140429;-65
2022/07/28 01:52:07;;;;;;;2.00;1.80;;;;;;;9.82;70.70;100087.80;215338;1278;140812;-65
2022/07/28 01:57:13;;;;;;;1.90;1.80;;;;;;;9.83;70.66;100089.88;215495;1277;142228;-65
2022/07/28 02:02:17;;;;;;;2.90;2.70;;;;;;;9.77;70.85;100089.46;215509;1277;140992;-65
2022/07/28 02:07:22;;;;;;;1.90;1.60;;;;;;;9.69;70.48;100088.70;215580;1277;140493;-65
2022/07/28 02:12:26;;;;;;;2.30;1.90;;;;;;;9.57;70.45;100093.01;215319;1278;141130;-65
2022/07/28 02:17:32;;;;;;;4.10;1.70;;;;;;;9.50;70.41;100091.39;215777;1277;141701;-65
2022/07/28 02:22:37;;;;;;;2.90;1.70;;;;;;;9.42;70.77;100092.92;214601;1278;221999;-65
2022/07/28 02:27:48;;;;;;;5.70;1.50;;;;;;;9.30;70.78;100092.43;213892;1277;141683;-65
2022/07/28 02:32:58;;;;;;;1.60;1.50;;;;;;;9.10;70.75;100094.65;213891;1278;141144;-65
2022/07/28 02:38:11;;;;;;;2.60;2.00;;;;;;;9.01;71.07;100099.83;214332;1278;141976;-64
2022/07/28 02:43:19;;;;;;;2.60;2.40;;;;;;;8.96;71.58;100104.40;213625;1277;141241;-64
2022/07/28 02:48:26;;;;;;;3.30;2.30;;;;;;;8.87;71.21;100107.60;213906;1278;141797;-64
2022/07/28 02:53:30;;;;;;;1.70;1.60;;;;;;;8.82;71.55;100110.52;213920;1277;141294;-65
2022/07/28 02:58:33;;;;;;;3.00;1.80;;;;;;;8.87;71.45;100117.63;213177;1279;140406;-65
2022/07/28 03:03:37;;;;;;;2.50;2.00;;;;;;;8.82;71.29;100117.18;212720;1279;142843;-65
2022/07/28 03:08:49;;;;;;;1.50;1.40;;;;;;;8.66;71.40;100115.34;212977;1277;140681;-64
2022/07/28 03:13:51;;;;;;;2.10;1.90;;;;;;;8.48;71.54;100120.88;212809;1278;142009;-64
2022/07/28 03:18:55;;;;;;;2.70;1.60;;;;;;;8.40;71.83;100123.77;213378;1277;143596;-64
2022/07/28 03:23:59;;;;;;;5.90;2.30;;;;;;;8.41;72.17;100129.94;214183;1277;143026;-64
2022/07/28 03:29:02;;;;;;;9.60;2.20;;;;;;;8.45;72.47;100130.81;214235;1277;140766;-64
2022/07/28 03:34:09;;;;;;;2.20;2.10;;;;;;;8.60;73.00;100140.72;214378;1277;142237;-64
2022/07/28 03:39:17;;;;;;;5.50;2.50;;;;;;;8.74;72.91;100148.95;213695;1277;165603;-61
2022/07/28 03:44:22;;;;;;;2.00;1.90;;;;;;;8.81;72.42;100153.17;214515;1277;142008;-64
2022/07/28 03:49:30;;;;;;;6.10;2.80;;;;;;;8.84;72.78;100148.65;214878;1277;141539;-65
2022/07/28 03:54:32;;;;;;;5.20;2.20;;;;;;;9.05;73.09;100152.95;213479;1277;142177;-64
2022/07/28 03:59:35;;;;;;;3.30;2.20;;;;;;;9.61;72.67;100151.86;213474;1277;142048;-63
2022/07/28 04:04:40;;;;;;;7.10;1.90;;;;;;;10.26;72.41;100154.80;215737;1277;141942;-64
2022/07/28 04:09:43;;;;;;;8.60;2.20;;;;;;;10.37;72.13;100155.22;215212;1277;140883;-64
2022/07/28 04:14:45;;;;;;;3.80;1.90;;;;;;;10.43;71.64;100160.75;215091;1279;140905;-64
2022/07/28 04:19:49;;;;;;;7.00;3.60;;;;;;;10.71;71.87;100159.88;215558;1277;141455;-64
2022/07/28 04:24:53;;;;;;;4.20;2.30;;;;;;;11.17;71.64;100158.98;213318;1277;141527;-62
2022/07/28 04:29:56;;;;;;;2.90;2.40;;;;;;;11.59;71.77;100163.14;213801;1278;141524;-64
2022/07/28 04:34:58;;;;;;;17.20;3.60;;;;;;;11.98;71.88;100160.30;212946;1277;142466;-65
2022/07/28 04:40:02;;;;;;;2.50;2.00;;;;;;;12.25;71.70;100166.20;212717;1277;141987;-62
2022/07/28 04:45:06;;;;;;;2.00;1.90;;;;;;;12.48;71.60;100165.35;213818;1277;140866;-63
2022/07/28 04:50:11;;;;;;;5.30;2.80;;;;;;;12.99;71.42;100164.29;212639;1277;142544;-63
2022/07/28 04:55:15;;;;;;;2.00;1.70;;;;;;;13.78;70.88;100168.41;212570;1278;141559;-66
2022/07/28 05:00:17;;;;;;;7.80;2.70;;;;;;;14.19;70.79;100174.27;213892;1277;141367;-65
2022/07/28 05:05:20;;;;;;;4.30;2.80;;;;;;;14.53;70.37;100174.09;214530;1278;230296;-65
2022/07/28 05:10:25;;;;;;;4.60;2.60;;;;;;;14.61;69.97;100176.45;213424;1279;141458;-65
2022/07/28 05:15:28;;;;;;;4.00;2.70;;;;;;;14.57;69.86;100180.69;214529;1279;139975;-64
2022/07/28 05:20:30;;;;;;;6.90;2.90;;;;;;;14.70;69.80;100184.96;214699;1277;140656;-63
2022/07/28 05:25:36;;;;;;;7.30;3.10;;;;;;;17.75;66.47;100183.23;213705;1277;143535;-64
2022/07/28 05:30:43;;;;;;;3.20;2.40;;;;;;;22.77;61.72;100183.56;213266;1278;142193;-64
2022/07/28 05:35:52;;;;;;;3.20;2.30;;;;;;;26.93;56.87;100185.34;212398;1279;141039;-63
2022/07/28 05:40:54;;;;;;;3.40;2.20;;;;;;;30.25;51.76;100188.11;213326;1279;141604;-65
2022/07/28 05:45:57;;;;;;;2.40;2.00;;;;;;;32.66;46.54;100190.80;212939;1278;141666;-65
2022/07/28 05:50:59;;;;;;;5.00;2.20;;;;;;;34.45;42.36;100197.40;215265;1277;140249;-66
2022/07/28 05:56:02;;;;;;;2.10;1.40;;;;;;;36.09;39.37;100198.65;214985;1277;401895;-66
2022/07/28 06:01:05;;;;;;;7.20;2.40;;;;;;;37.04;35.16;100204.77;215466;1277;141491;-69
2022/07/28 06:06:11;;;;;;;2.10;1.70;;;;;;;36.39;34.23;100202.56;215486;1277;140637;-67
2022/07/28 06:11:19;;;;;;;1.80;1.60;;;;;;;35.90;33.11;100199.95;215197;1277;140730;-67
2022/07/28 06:16:25;;;;;;;3.10;2.10;;;;;;;36.17;30.99;100205.20;213348;1277;140788;-66
2022/07/28 06:21:29;;;;;;;3.10;1.50;;;;;;;35.98;29.82;100208.59;214492;1278;141783;-66
2022/07/28 06:26:35;;;;;;;0.90;0.90;;;;;;;34.47;30.33;100209.84;215568;1277;141133;-66
2022/07/28 06:31:41;;;;;;;1.20;1.10;;;;;;;34.59;30.76;100207.11;214998;1277;141863;-66
2022/07/28 06:36:43;;;;;;;2.30;2.00;;;;;;;34.61;30.53;100212.08;213958;1278;140739;-66
2022/07/28 06:41:47;;;;;;;1.70;1.30;;;;;;;32.98;30.77;100210.98;212957;1278;140877;-64
2022/07/28 06:46:49;;;;;;;1.60;1.00;;;;;;;31.63;31.48;100209.30;214140;1277;141811;-64
2022/07/28 06:51:53;;;;;;;2.20;1.40;;;;;;;30.54;32.08;100208.58;212714;1277;139491;-66
2022/07/28 06:56:57;;;;;;;2.20;0.60;;;;;;;29.80;32.68;100205.96;214500;1277;141337;-66
2022/07/28 07:02:03;;;;;;;3.50;1.50;;;;;;;28.89;33.08;100214.68;212456;1278;141292;-65
2022/07/28 07:07:06;;;;;;;3.80;1.00;;;;;;;28.64;33.60;100217.05;213779;1277;141307;-65
2022/07/28 07:12:20;;;;;;;2.90;1.00;;;;;;;29.59;33.14;100213.48;213435;1277;141626;-65
2022/07/28 07:17:23;;;;;;;2.40;1.10;;;;;;;30.92;32.70;100212.11;212498;1278;140418;-65
2022/07/28 07:22:26;;;;;;;2.00;0.70;;;;;;;31.86;31.73;100216.67;214239;1279;140901;-65
2022/07/28 07:27:30;;;;;;;2.20;0.50;;;;;;;32.38;31.15;100218.38;212717;1278;140592;-67
2022/07/28 07:32:35;;;;;;;4.60;1.10;;;;;;;32.48;31.06;100216.65;214628;1277;141516;-67
2022/07/28 07:37:39;;;;;;;1.40;0.60;;;;;;;32.58;30.86;100219.50;215130;1277;140045;-67
2022/07/28 07:42:44;;;;;;;3.50;1.70;;;;;;;32.53;30.79;100222.64;214363;1277;140173;-65
2022/07/28 07:47:47;;;;;;;1.40;0.90;;;;;;;32.30;31.13;100224.95;214684;1278;140251;-69
2022/07/28 07:52:50;;;;;;;5.60;1.20;;;;;;;31.91;30.44;100232.85;215000;1277;141077;-66
2022/07/28 07:57:54;;;;;;;1.10;0.90;;;;;;;31.54;30.64;100231.95;214254;1278;150406;-66
2022/07/28 08:02:59;;;;;;;4.40;1.30;;;;;;;31.18;30.76;100233.48;215283;1279;140639;-70
2022/07/28 08:08:04;;;;;;;2.70;1.40;;;;;;;30.87;30.67;100238.20;215424;1277;146496;-67
2022/07/28 08:13:08;;;;;;;3.70;1.20;;;;;;;30.38;30.10;100234.42;215482;1277;250719;-66
2022/07/28 08:18:11;;;;;;;2.20;0.80;;;;;;;29.91;31.19;100241.44;215516;1277;141010;-67
2022/07/28 08:23:17;;;;;;;1.80;1.20;;;;;;;29.76;31.31;100238.39;212685;1279;141929;-65
2022/07/28 08:28:27;;;;;;;0.70;0.70;;;;;;;29.68;31.15;100237.13;214719;1277;141563;-66
2022/07/28 08:33:31;;;;;;;3.30;1.00;;;;;;;29.54;31.42;100230.30;213296;1279;142778;-65
2022/07/28 08:38:35;;;;;;;1.50;1.00;;;;;;;29.14;31.75;100230.30;214037;1278;140983;-66
2022/07/28 08:43:41;;;;;;;4.10;1.30;;;;;;;29.08;32.23;100229.94;214213;1278;140595;-65
2022/07/28 08:48:45;;;;;;;4.70;1.30;;;;;;;29.05;32.35;100234.12;213150;1278;140634;-65
2022/07/28 08:53:51;;;;;;;1.20;1.10;;;;;;;28.95;32.66;100231.70;214790;1279;139662;-66
2022/07/28 08:58:56;;;;;;;2.40;1.40;;;;;;;28.74;32.44;100228.54;214104;1279;140263;-66
2022/07/28 09:04:00;;;;;;;3.10;1.40;;;;;;;28.43;32.95;100233.64;213798;1279;140032;-67
2022/07/28 09:09:04;;;;;;;1.60;1.40;;;;;;;28.50;32.83;100233.52;213986;1278;140885;-66
2022/07/28 09:14:07;;;;;;;4.90;2.10;;;;;;;28.52;33.41;100233.36;213610;1278;140376;-65
2022/07/28 09:19:10;;;;;;;3.70;1.90;;;;;;;28.41;32.85;100226.77;213013;1279;140907;-65
2022/07/28 09:24:33;;;;;;;2.10;1.40;;;;;;;28.31;33.16;100227.05;212616;1278;141443;-62
2022/07/28 09:29:38;;;;;;;1.10;1.10;;;;;;;28.17;33.31;100223.66;213624;1277;140054;-65
2022/07/28 09:34:46;;;;;;;2.50;1.40;;;;;;;27.91;33.63;100216.42;213237;1277;141212;-63
2022/07/28 09:39:58;;;;;;;2.90;1.10;;;;;;;27.90;33.58;100218.95;212762;1279;141652;-63
2022/07/28 09:45:06;;;;;;;2.10;1.20;;;;;;;27.93;33.66;100216.73;213592;1279;142069;-63
2022/07/28 09:50:29;;;;;;;6.60;1.40;;;;;;;27.95;33.50;100220.80;212586;1279;141386;-63
2022/07/28 09:55:52;;;;;;;0.80;0.80;;;;;;;27.92;34.08;100224.21;213153;1277;140521;-64
2022/07/28 10:01:06;;;;;;;6.30;1.60;;;;;;;27.85;33.62;100211.98;215519;1277;141375;-64
2022/07/28 10:06:23;;;;;;;6.40;1.90;;;;;;;27.74;33.63;100216.30;215625;1277;140179;-66
2022/07/28 10:11:28;;;;;;;1.20;1.10;;;;;;;27.89;33.70;100210.86;213379;1277;140710;-66
2022/07/28 10:16:41;;;;;;;1.80;0.90;;;;;;;27.88;33.45;100210.30;214639;1277;140190;-66
2022/07/28 10:21:49;;;;;;;2.50;1.00;;;;;;;27.91;33.42;100204.44;215639;1277;140447;-66
2022/07/28 10:26:55;;;;;;;2.40;1.20;;;;;;;28.00;33.37;100199.27;215469;1277;139503;-66
2022/07/28 10:32:05;;;;;;;1.60;1.00;;;;;;;28.08;33.08;100199.08;214372;1277;140417;-66
2022/07/28 10:37:20;;;;;;;1.20;1.10;;;;;;;27.62;33.17;100195.91;215292;1277;141506;-67
2022/07/28 10:42:25;;;;;;;4.90;1.70;;;;;;;27.69;33.56;100190.40;213153;1277;140018;-65
2022/07/28 10:47:29;;;;;;;4.30;1.30;;;;;;;27.83;33.64;100189.77;213598;1279;140572;-64
2022/07/28 10:52:42;;;;;;;3.00;1.30;;;;;;;27.98;33.04;100194.91;213924;1280;140210;-63
2022/07/28 10:58:11;;;;;;;3.90;1.30;;;;;;;27.94;32.50;100193.45;213020;1277;140508;-64
2022/07/28 11:03:43;;;;;;;2.60;1.30;;;;;;;27.74;33.12;100184.16;213108;1278;139700;-63
2022/07/28 11:08:47;;;;;;;4.60;1.10;;;;;;;27.68;33.40;100176.70;213251;1278;140408;-64
2022/07/28 11:13:50;;;;;;;1.00;1.00;;;;;;;27.68;33.86;100169.82;213637;1278;141316;-64
2022/07/28 11:19:06;;;;;;;2.40;1.00;;;;;;;27.76;33.53;100168.58;212918;1278;140289;-64
2022/07/28 11:24:09;;;;;;;4.40;1.40;;;;;;;27.87;33.45;100169.60;214424;1278;141529;-66
2022/07/28 11:29:17;;;;;;;6.00;1.50;;;;;;;27.56;33.06;100165.57;212742;1278;141346;-67
2022/07/28 11:34:21;;;;;;;4.00;1.40;;;;;;;27.74;33.98;100160.50;212915;1277;151408;-66
2022/07/28 11:39:30;;;;;;;2.00;1.10;;;;;;;27.94;33.61;100156.14;213639;1277;141087;-67
2022/07/28 11:44:46;;;;;;;1.60;1.30;;;;;;;28.17;33.65;100153.16;213283;1277;141477;-66
2022/07/28 11:50:15;;;;;;;4.30;1.20;;;;;;;28.45;33.42;100150.88;215223;1277;141228;-66
2022/07/28 11:55:18;;;;;;;3.30;1.40;;;;;;;28.29;32.97;100153.42;214644;1277;139897;-67
2022/07/28 12:00:22;;;;;;;1.50;0.90;;;;;;;28.21;33.18;100155.34;215458;1279;140305;-67
2022/07/28 12:05:27;;;;;;;1.80;1.20;;;;;;;27.90;32.79;100151.95;214673;1278;139802;-66
2022/07/28 12:10:36;;;;;;;4.90;1.50;;;;;;;27.46;32.73;100142.98;215379;1279;141070;-66
2022/07/28 12:15:55;;;;;;;33.40;2.70;;;;;;;27.42;33.32;100137.36;215423;1278;140547;-64
2022/07/28 12:20:57;;;;;;;3.60;1.60;;;;;;;27.83;33.17;100139.67;214514;1278;140344;-65
2022/07/28 12:26:08;;;;;;;1.40;1.20;;;;;;;27.91;33.42;100132.95;214929;1278;140104;-65
2022/07/28 12:31:13;;;;;;;48.70;4.10;;;;;;;27.94;32.50;100130.03;215503;1278;141139;-65
2022/07/28 12:36:18;;;;;;;1.40;1.10;;;;;;;27.95;33.32;100133.48;212799;1279;140036;-64
2022/07/28 12:41:21;;;;;;;1.20;1.10;;;;;;;27.78;33.13;100134.73;215223;1278;140762;-64
2022/07/28 12:46:27;;;;;;;3.30;1.20;;;;;;;27.44;33.12;100133.48;214425;1277;140339;-64
2022/07/28 12:51:33;;;;;;;4.50;1.00;;;;;;;27.36;33.28;100125.11;213550;1278;140300;-63
2022/07/28 12:56:47;;;;;;;4.40;2.30;;;;;;;27.40;33.39;100129.96;214032;1278;140079;-63
2022/07/28 13:01:57;;;;;;;2.60;2.20;;;;;;;27.35;32.77;100120.14;213252;1279;139743;-62
2022/07/28 13:07:00;;;;;;;1.40;1.20;;;;;;;27.45;33.37;100122.87;214306;1278;141519;-65
2022/07/28 13:12:16;;;;;;;2.60;1.00;;;;;;;27.59;33.41;100128.98;212758;1277;140320;-65
2022/07/28 13:17:21;;;;;;;7.00;1.50;;;;;;;27.60;32.84;100126.82;212842;1278;142504;-63
2022/07/28 13:22:28;;;;;;;4.30;1.40;;;;;;;27.35;32.54;100126.80;213752;1279;139694;-64
2022/07/28 13:27:32;;;;;;;2.60;1.10;;;;;;;27.40;32.83;100125.66;212638;1279;139466;-64
2022/07/28 13:32:35;;;;;;;1.40;1.20;;;;;;;27.50;32.89;100126.45;213334;1279;140022;-64
2022/07/28 13:37:38;;;;;;;3.90;1.60;;;;;;;27.30;32.64;100127.14;213846;1278;139529;-64
2022/07/28 13:42:40;;;;;;;3.50;1.20;;;;;;;27.10;33.10;100131.54;214710;1277;140455;-64
2022/07/28 13:47:58;;;;;;;2.30;1.10;;;;;;;27.16;33.16;100130.20;213742;1278;140175;-67
2022/07/28 13:53:01;;;;;;;9.90;2.60;;;;;;;26.95;32.76;100126.60;215227;1277;140542;-65
2022/07/28 13:58:07;;;;;;;0.50;0.50;;;;;;;26.72;33.17;100126.14;213513;1279;140217;-65
2022/07/28 14:03:11;;;;;;;3.50;1.40;;;;;;;26.47;32.94;100126.29;212912;1279;142253;-66
2022/07/28 14:08:18;;;;;;;3.00;1.00;;;;;;;26.57;33.27;100127.70;214666;1278;140265;-66
2022/07/28 14:13:21;;;;;;;12.50;2.20;;;;;;;26.74;33.32;100127.48;214953;1280;140015;-65
2022/07/28 14:18:31;;;;;;;1.00;1.00;;;;;;;26.80;33.57;100126.09;212993;1279;141913;-67
2022/07/28 14:23:34;;;;;;;3.70;1.10;;;;;;;26.78;33.19;100124.83;215035;1278;140297;-66
2022/07/28 14:28:36;;;;;;;3.00;1.20;;;;;;;26.65;32.87;100119.34;215665;1278;140722;-66
2022/07/28 14:33:39;;;;;;;2.60;1.50;;;;;;;26.49;32.84;100120.39;214227;1279;140011;-67
2022/07/28 14:38:50;;;;;;;4.90;1.40;;;;;;;26.50;33.21;100120.03;214496;1279;140478;-66
2022/07/28 14:43:57;;;;;;;2.90;1.00;;;;;;;26.50;33.13;100113.79;214413;1279;139438;-67
2022/07/28 14:49:02;;;;;;;1.90;1.20;;;;;;;26.59;33.09;100113.18;214029;1279;140044;-66
2022/07/28 14:54:04;;;;;;;2.70;0.80;;;;;;;26.61;32.74;100111.20;213548;1279;140678;-65
2022/07/28 14:59:07;;;;;;;1.50;0.80;;;;;;;26.35;32.27;100108.63;213369;1278;140540;-65
2022/07/28 15:04:11;;;;;;;1.20;0.90;;;;;;;26.15;32.34;100105.31;213080;1279;141701;-65
2022/07/28 15:09:14;;;;;;;3.30;1.30;;;;;;;25.97;32.80;100106.79;213588;1279;141381;-66
2022/07/28 15:14:19;;;;;;;1.10;1.00;;;;;;;25.82;33.42;100108.73;212981;1279;140547;-66
2022/07/28 15:19:23;;;;;;;1.90;0.80;;;;;;;25.83;33.24;100101.48;213547;1278;140828;-67
2022/07/28 15:24:29;;;;;;;3.10;0.90;;;;;;;25.67;32.65;100099.92;213037;1279;141540;-67
2022/07/28 15:29:31;;;;;;;2.10;0.90;;;;;;;25.66;33.07;100099.13;213361;1278;141213;-66
2022/07/28 15:34:37;;;;;;;3.10;1.30;;;;;;;25.71;32.97;100094.03;213492;1278;139572;-65
2022/07/28 15:39:43;;;;;;;0.80;0.80;;;;;;;25.74;32.76;100090.32;213488;1279;140428;-66
2022/07/28 15:44:48;;;;;;;2.40;0.90;;;;;;;25.75;32.42;100088.81;213011;1278;140733;-63
2022/07/28 15:49:54;;;;;;;5.80;1.20;;;;;;;25.77;33.10;100090.50;213606;1279;141419;-64
2022/07/28 15:54:57;;;;;;;1.50;0.80;;;;;;;25.75;33.27;100090.96;212336;1279;141498;-65
2022/07/28 16:01:29;;;;;;;2.30;1.30;;;;;;;25.75;33.41;100095.91;213171;1315;636364;-65
2022/07/28 16:11:57;;;;;;;1.20;1.10;;;;;;;25.61;33.00;100089.15;212011;1280;527521;-66
2022/07/28 16:17:01;;;;;;;1.40;1.20;;;;;;;25.50;33.09;100090.30;213292;1282;140186;-65
2022/07/28 16:22:05;;;;;;;2.30;1.40;;;;;;;25.46;33.34;100088.42;214170;1282;141123;-65
2022/07/28 16:27:09;;;;;;;1.90;1.30;;;;;;;25.44;33.38;100089.65;215013;1281;139877;-65
2022/07/28 16:32:15;;;;;;;3.50;1.50;;;;;;;25.37;33.61;100084.73;214080;1282;139407;-65
2022/07/28 16:37:19;;;;;;;4.40;1.30;;;;;;;25.29;33.62;100084.95;214758;1282;139597;-66
2022/07/28 16:42:23;;;;;;;3.70;1.10;;;;;;;25.20;33.68;100087.69;214022;1282;140762;-66
2022/07/28 16:47:27;;;;;;;2.00;1.50;;;;;;;25.11;33.92;100091.03;213681;1282;139663;-67
2022/07/28 16:52:31;;;;;;;6.20;1.60;;;;;;;24.99;33.99;100087.67;213227;1282;140757;-65
2022/07/28 16:57:35;;;;;;;2.60;1.20;;;;;;;24.86;33.95;100085.50;213173;1283;141027;-66
2022/07/28 17:02:40;;;;;;;4.40;1.30;;;;;;;24.71;34.45;100089.45;213134;1280;140807;-65
2022/07/28 17:07:44;;;;;;;3.80;1.40;;;;;;;24.57;34.56;100090.90;213454;1281;140940;-65
2022/07/28 17:12:49;;;;;;;1.30;1.00;;;;;;;24.42;34.80;100092.46;212989;1281;140237;-65
2022/07/28 17:17:54;;;;;;;15.40;1.90;;;;;;;24.28;34.66;100095.37;213240;1279;140568;-64
2022/07/28 17:22:58;;;;;;;4.90;2.70;;;;;;;24.13;35.61;100097.81;213543;1277;141027;-64
2022/07/28 17:28:03;;;;;;;8.70;2.10;;;;;;;23.92;37.02;100096.42;213918;1277;138858;-65
2022/07/28 17:33:07;;;;;;;4.30;2.40;;;;;;;23.69;38.00;100099.23;214179;1277;138894;-65
2022/07/28 17:38:14;;;;;;;8.80;2.20;;;;;;;23.45;39.13;100105.88;213468;1277;139636;-65
2022/07/28 17:43:22;;;;;;;4.60;2.00;;;;;;;23.22;39.89;100107.23;214336;1278;139380;-65
2022/07/28 17:48:27;;;;;;;1.30;1.20;;;;;;;22.97;40.55;100106.40;213664;1277;140411;-65
2022/07/28 17:53:32;;;;;;;1.60;1.30;;;;;;;22.73;41.28;100108.58;214487;1277;139499;-65
2022/07/28 17:58:42;;;;;;;2.30;2.10;;;;;;;22.49;42.03;100116.42;214052;1277;140019;-65
2022/07/28 18:03:48;;;;;;;5.50;2.60;;;;;;;22.24;42.55;100116.77;214185;1277;140775;-66
2022/07/28 18:09:02;;;;;;;4.20;3.20;;;;;;;21.97;42.94;100121.26;213663;1275;140519;-65
2022/07/28 18:14:09;;;;;;;6.50;3.30;;;;;;;21.68;43.71;100124.92;214944;1277;141066;-66
2022/07/28 18:19:12;;;;;;;4.80;2.90;;;;;;;21.41;43.85;100121.39;214591;1276;140366;-67
2022/07/28 18:24:17;;;;;;;2.80;2.50;;;;;;;21.16;44.68;100123.67;215836;1277;140660;-66
2022/07/28 18:29:23;;;;;;;4.30;2.40;;;;;;;20.91;45.11;100123.98;215611;1276;140213;-64
2022/07/28 18:34:40;;;;;;;1.90;1.80;;;;;;;20.63;45.59;100125.95;216370;1274;140489;-67
2022/07/28 18:39:45;;;;;;;2.50;1.90;;;;;;;20.38;46.65;100128.88;216304;1274;139077;-66
2022/07/28 18:44:49;;;;;;;7.30;2.00;;;;;;;20.14;47.21;100130.33;215492;1274;139720;-66
2022/07/28 18:49:56;;;;;;;4.80;2.00;;;;;;;19.88;47.58;100135.05;214953;1273;140083;-65
2022/07/28 18:55:01;;;;;;;7.80;2.10;;;;;;;19.63;47.88;100137.84;213977;1274;140007;-65
2022/07/28 19:00:08;;;;;;;4.00;2.00;;;;;;;19.26;48.58;100146.77;215259;1274;140822;-66
2022/07/28 19:05:15;;;;;;;3.00;1.40;;;;;;;18.78;49.60;100154.59;213871;1274;139321;-66
2022/07/28 19:10:20;;;;;;;8.70;2.30;;;;;;;18.45;50.53;100158.66;214322;1274;139659;-66
2022/07/28 19:15:27;;;;;;;5.10;2.20;;;;;;;18.29;51.31;100160.52;214454;1274;139737;-65
2022/07/28 19:20:32;;;;;;;4.80;1.90;;;;;;;18.07;51.45;100156.47;213899;1274;138736;-65
2022/07/28 19:25:38;;;;;;;8.80;1.80;;;;;;;17.56;52.24;100162.79;213830;1274;152982;-67
2022/07/28 19:30:44;;;;;;;5.10;2.50;;;;;;;17.37;53.34;100164.77;215129;1274;139894;-66
2022/07/28 19:35:48;;;;;;;7.20;2.90;;;;;;;17.28;53.63;100165.30;213740;1274;139901;-65
2022/07/28 19:40:54;;;;;;;7.30;2.60;;;;;;;17.19;54.16;100163.72;213840;1274;139873;-66
2022/07/28 19:45:58;;;;;;;14.80;2.10;;;;;;;17.06;54.63;100166.52;214075;1274;139611;-66
2022/07/28 19:51:03;;;;;;;11.20;3.50;;;;;;;16.84;55.13;100172.27;214556;1274;140205;-66
2022/07/28 19:56:07;;;;;;;2.20;2.10;;;;;;;16.60;55.62;100174.77;213829;1274;140271;-67
2022/07/28 20:01:12;;;;;;;3.40;2.40;;;;;;;16.37;56.21;100174.93;215352;1274;140001;-67
2022/07/28 20:06:18;;;;;;;2.30;2.10;;;;;;;16.19;56.82;100183.45;214334;1274;139882;-66
2022/07/28 20:11:27;;;;;;;4.30;2.40;;;;;;;16.00;57.36;100188.97;213629;1274;139908;-67
2022/07/28 20:16:31;;;;;;;6.10;2.50;;;;;;;15.93;57.69;100189.29;215465;1274;139162;-65
2022/07/28 20:21:35;;;;;;;7.00;3.20;;;;;;;15.88;57.83;100192.98;215595;1276;139589;-66
2022/07/28 20:26:41;;;;;;;9.70;3.00;;;;;;;15.82;58.11;100194.08;216382;1274;139208;-66
2022/07/28 20:31:48;;;;;;;14.40;2.60;;;;;;;15.64;58.18;100199.24;216334;1271;140826;-66
2022/07/28 20:36:53;;;;;;;4.80;2.30;;;;;;;15.41;58.79;100201.17;214301;1274;139183;-65
2022/07/28 20:41:57;;;;;;;12.80;3.50;;;;;;;15.35;59.20;100202.09;215271;1274;139251;-66
2022/07/28 20:47:02;;;;;;;13.50;3.00;;;;;;;15.25;59.38;100201.35;214795;1274;162680;-65
2022/07/28 20:52:08;;;;;;;12.50;3.10;;;;;;;15.13;59.63;100205.46;214721;1274;142042;-66
2022/07/28 20:57:12;;;;;;;13.70;3.30;;;;;;;15.04;60.04;100206.86;213859;1274;141817;-66
2022/07/28 21:02:17;;;;;;;6.60;2.20;;;;;;;15.00;60.44;100207.69;215128;1274;140926;-66
2022/07/28 21:07:22;;;;;;;9.00;3.50;;;;;;;14.93;60.35;100209.88;214582;1274;140695;-65
2022/07/28 21:12:46;;;;;;;3.90;2.90;;;;;;;14.76;60.76;100211.98;214228;1274;140550;-65
2022/07/28 21:17:54;;;;;;;8.30;3.40;;;;;;;14.68;61.13;100218.33;213933;1274;140625;-65
2022/07/28 21:22:58;;;;;;;2.80;2.10;;;;;;;14.58;61.43;100222.50;213748;1274;140825;-65
2022/07/28 21:33:25;;;;;;;4.70;2.90;;;;;;;14.22;62.55;100235.45;214820;1274;141548;-65
2022/07/28 21:38:30;;;;;;;2.60;2.10;;;;;;;14.17;62.68;100241.89;214797;1274;139838;-65
2022/07/28 21:43:34;;;;;;;4.10;2.50;;;;;;;13.98;63.01;100239.86;214322;1276;139609;-66
2022/07/28 21:48:38;;;;;;;9.80;4.10;;;;;;;13.78;63.22;100241.14;214167;1274;139381;-65
2022/07/28 21:53:45;;;;;;;4.90;3.90;;;;;;;13.62;63.72;100252.61;214000;1274;140664;-65
2022/07/28 21:58:49;;;;;;;13.60;4.30;;;;;;;13.61;64.21;100254.48;214367;1274;142892;-65
2022/07/28 22:03:54;;;;;;;11.50;3.60;;;;;;;13.61;64.19;100254.27;214850;1274;140339;-64
2022/07/28 22:08:57;;;;;;;13.20;4.00;;;;;;;13.63;64.42;100252.30;215389;1274;141288;-65
2022/07/28 22:14:01;;;;;;;5.80;3.70;;;;;;;13.57;64.40;100258.91;216062;1274;139770;-65
2022/07/28 22:19:05;;;;;;;3.60;3.30;;;;;;;13.47;64.59;100262.64;216210;1272;138868;-65
2022/07/28 22:24:09;;;;;;;6.60;2.80;;;;;;;13.41;64.57;100260.89;216099;1274;139496;-65
2022/07/28 22:29:14;;;;;;;6.50;4.00;;;;;;;13.28;64.68;100265.23;216107;1274;141244;-65
2022/07/28 22:34:18;;;;;;;7.80;4.20;;;;;;;13.27;64.85;100267.13;216277;1274;140890;-65
2022/07/28 22:39:22;;;;;;;18.30;4.30;;;;;;;13.23;65.16;100266.09;214252;1274;140845;-65
2022/07/28 22:44:27;;;;;;;12.90;4.00;;;;;;;13.18;65.14;100270.60;213928;1274;141791;-65
2022/07/28 22:49:31;;;;;;;7.60;4.00;;;;;;;13.08;65.69;100272.65;214324;1277;141932;-65
2022/07/28 22:54:39;;;;;;;7.70;3.90;;;;;;;13.04;65.84;100274.55;214223;1272;225007;-65
2022/07/28 23:00:05;;;;;;;8.80;4.60;;;;;;;13.02;66.19;100271.02;213862;1274;141145;-65
2022/07/28 23:05:10;;;;;;;5.70;3.20;;;;;;;12.95;66.07;100273.20;215170;1274;142189;-65
2022/07/28 23:10:14;;;;;;;3.90;3.20;;;;;;;12.89;66.52;100268.61;214175;1274;140815;-66
2022/07/28 23:15:18;;;;;;;3.90;3.40;;;;;;;12.75;66.39;100265.61;214166;1274;142434;-65
2022/07/28 23:20:23;;;;;;;5.10;3.20;;;;;;;12.70;66.61;100266.99;213850;1274;141250;-65
2022/07/28 23:25:28;;;;;;;7.90;3.50;;;;;;;12.65;66.88;100267.33;213968;1274;139524;-65